sensor_id;sensor_type;location;lat;lon;timestamp;temperature;humidity
12815;DHT22;6472;52.328;13.070;2022-08-19T00:01:44;21.20;99.90
12815;DHT22;6472;52.328;13.070;2022-08-19T00:04:21;21.20;99.90
12815;DHT22;6472;52.328;13.070;2022-08-19T00:06:52;21.10;99.90
12815;DHT22;6472;52.328;13.070;2022-08-19T00:09:23;21.10;99.90
12815;DHT22;6472;52.328;13.070;2022-08-19T00:11:52;21.10;99.90
12815;DHT22;6472;52.328;13.070;2022-08-19T00:14:23;21.00;99.90
12815;DHT22;6472;52.328;13.070;2022-08-19T00:16:53;21.00;99.90
12815;DHT22;6472;52.328;13.070;2022-08-19T00:19:22;21.00;99.90
12815;DHT22;6472;52.328;13.070;2022-08-19T00:21:52;20.90;99.90
12815;DHT22;6472;52.328;13.070;2022-08-19T00:24:22;20.70;99.90
12815;DHT22;6472;52.328;13.070;2022-08-19T00:26:50;20.70;99.90
12815;DHT22;6472;52.328;13.070;2022-08-19T00:29:20;20.60;99.90
12815;DHT22;6472;52.328;13.070;2022-08-19T00:31:49;20.50;99.90
12815;DHT22;6472;52.328;13.070;2022-08-19T00:34:19;20.50;99.90
12815;DHT22;6472;52.328;13.070;2022-08-19T00:36:48;20.40;99.90
12815;DHT22;6472;52.328;13.070;2022-08-19T00:39:18;20.40;99.90
12815;DHT22;6472;52.328;13.070;2022-08-19T00:41:47;20.40;99.90
12815;DHT22;6472;52.328;13.070;2022-08-19T00:44:18;20.30;99.90
12815;DHT22;6472;52.328;13.070;2022-08-19T00:46:53;20.30;99.90
12815;DHT22;6472;52.328;13.070;2022-08-19T00:49:31;20.30;99.90
12815;DHT22;6472;52.328;13.070;2022-08-19T00:52:03;20.20;99.90
12815;DHT22;6472;52.328;13.070;2022-08-19T00:54:33;20.20;99.90
12815;DHT22;6472;52.328;13.070;2022-08-19T00:57:05;20.20;99.90
12815;DHT22;6472;52.328;13.070;2022-08-19T00:59:35;20.20;99.90
12815;DHT22;6472;52.328;13.070;2022-08-19T01:02:24;20.20;99.90
12815;DHT22;6472;52.328;13.070;2022-08-19T01:04:52;20.10;99.90
12815;DHT22;6472;52.328;13.070;2022-08-19T01:07:21;20.10;99.90
12815;DHT22;6472;52.328;13.070;2022-08-19T01:09:51;20.10;99.90
12815;DHT22;6472;52.328;13.070;2022-08-19T01:12:20;20.10;99.90
12815;DHT22;6472;52.328;13.070;2022-08-19T01:14:49;20.10;99.90
12815;DHT22;6472;52.328;13.070;2022-08-19T01:17:18;20.00;99.90
12815;DHT22;6472;52.328;13.070;2022-08-19T01:19:46;20.10;99.90
12815;DHT22;6472;52.328;13.070;2022-08-19T01:22:19;20.00;99.90
12815;DHT22;6472;52.328;13.070;2022-08-19T01:24:58;20.10;99.90
12815;DHT22;6472;52.328;13.070;2022-08-19T01:27:26;20.00;99.90
12815;DHT22;6472;52.328;13.070;2022-08-19T01:30:10;20.00;99.90
12815;DHT22;6472;52.328;13.070;2022-08-19T01:32:39;20.00;99.90
12815;DHT22;6472;52.328;13.070;2022-08-19T01:35:08;20.00;99.90
12815;DHT22;6472;52.328;13.070;2022-08-19T01:37:45;19.90;99.90
12815;DHT22;6472;52.328;13.070;2022-08-19T01:40:15;19.90;99.90
12815;DHT22;6472;52.328;13.070;2022-08-19T01:42:43;19.90;99.90
12815;DHT22;6472;52.328;13.070;2022-08-19T01:45:11;19.90;99.90
12815;DHT22;6472;52.328;13.070;2022-08-19T01:47:39;19.80;99.90
12815;DHT22;6472;52.328;13.070;2022-08-19T01:50:17;19.80;99.90
12815;DHT22;6472;52.328;13.070;2022-08-19T01:52:47;19.80;99.90
12815;DHT22;6472;52.328;13.070;2022-08-19T01:55:30;19.90;99.90
12815;DHT22;6472;52.328;13.070;2022-08-19T01:58:00;19.80;99.90
12815;DHT22;6472;52.328;13.070;2022-08-19T02:00:30;19.80;99.90
12815;DHT22;6472;52.328;13.070;2022-08-19T02:02:59;19.80;99.90
12815;DHT22;6472;52.328;13.070;2022-08-19T02:05:27;19.80;99.90
12815;DHT22;6472;52.328;13.070;2022-08-19T02:07:57;19.80;99.90
12815;DHT22;6472;52.328;13.070;2022-08-19T02:10:25;19.70;99.90
12815;DHT22;6472;52.328;13.070;2022-08-19T02:12:55;19.70;99.90
12815;DHT22;6472;52.328;13.070;2022-08-19T02:15:23;19.70;99.90
12815;DHT22;6472;52.328;13.070;2022-08-19T02:17:52;19.60;99.90
12815;DHT22;6472;52.328;13.070;2022-08-19T02:20:20;19.60;99.90
12815;DHT22;6472;52.328;13.070;2022-08-19T02:22:49;19.60;99.90
12815;DHT22;6472;52.328;13.070;2022-08-19T02:25:17;19.60;99.90
12815;DHT22;6472;52.328;13.070;2022-08-19T02:27:45;19.50;99.90
12815;DHT22;6472;52.328;13.070;2022-08-19T02:30:17;19.50;99.90
12815;DHT22;6472;52.328;13.070;2022-08-19T02:32:45;19.60;99.90
12815;DHT22;6472;52.328;13.070;2022-08-19T02:35:14;19.60;99.90
12815;DHT22;6472;52.328;13.070;2022-08-19T02:37:42;19.50;99.90
12815;DHT22;6472;52.328;13.070;2022-08-19T02:40:28;19.50;99.90
12815;DHT22;6472;52.328;13.070;2022-08-19T02:42:56;19.50;99.90
12815;DHT22;6472;52.328;13.070;2022-08-19T02:45:25;19.50;99.90
12815;DHT22;6472;52.328;13.070;2022-08-19T02:47:54;19.50;99.90
12815;DHT22;6472;52.328;13.070;2022-08-19T02:50:23;19.50;99.90
12815;DHT22;6472;52.328;13.070;2022-08-19T02:52:51;19.50;99.90
12815;DHT22;6472;52.328;13.070;2022-08-19T02:55:19;19.50;99.90
12815;DHT22;6472;52.328;13.070;2022-08-19T02:57:48;19.50;99.90
12815;DHT22;6472;52.328;13.070;2022-08-19T03:00:16;19.40;99.90
12815;DHT22;6472;52.328;13.070;2022-08-19T03:02:46;19.40;99.90
12815;DHT22;6472;52.328;13.070;2022-08-19T03:05:15;19.40;99.90
12815;DHT22;6472;52.328;13.070;2022-08-19T03:07:56;19.40;99.90
12815;DHT22;6472;52.328;13.070;2022-08-19T03:10:24;19.40;99.90
12815;DHT22;6472;52.328;13.070;2022-08-19T03:12:52;19.40;99.90
12815;DHT22;6472;52.328;13.070;2022-08-19T03:15:20;19.40;99.90
12815;DHT22;6472;52.328;13.070;2022-08-19T03:17:49;19.30;99.90
12815;DHT22;6472;52.328;13.070;2022-08-19T03:20:17;19.30;99.90
12815;DHT22;6472;52.328;13.070;2022-08-19T03:22:45;19.30;99.90
12815;DHT22;6472;52.328;13.070;2022-08-19T03:25:14;19.30;99.90
12815;DHT22;6472;52.328;13.070;2022-08-19T03:27:42;19.40;99.90
12815;DHT22;6472;52.328;13.070;2022-08-19T03:30:12;19.30;99.90
12815;DHT22;6472;52.328;13.070;2022-08-19T03:32:46;19.30;99.90
12815;DHT22;6472;52.328;13.070;2022-08-19T03:35:20;19.30;99.90
12815;DHT22;6472;52.328;13.070;2022-08-19T03:37:48;19.30;99.90
12815;DHT22;6472;52.328;13.070;2022-08-19T03:40:17;19.30;99.90
12815;DHT22;6472;52.328;13.070;2022-08-19T03:42:45;19.30;99.90
12815;DHT22;6472;52.328;13.070;2022-08-19T03:45:15;19.30;99.90
12815;DHT22;6472;52.328;13.070;2022-08-19T03:47:43;19.30;99.90
12815;DHT22;6472;52.328;13.070;2022-08-19T03:50:12;19.30;99.90
12815;DHT22;6472;52.328;13.070;2022-08-19T03:52:41;19.20;99.90
12815;DHT22;6472;52.328;13.070;2022-08-19T03:55:12;19.30;99.90
12815;DHT22;6472;52.328;13.070;2022-08-19T03:57:40;19.20;99.90
12815;DHT22;6472;52.328;13.070;2022-08-19T04:00:09;19.20;99.90
12815;DHT22;6472;52.328;13.070;2022-08-19T04:02:39;19.20;99.90
12815;DHT22;6472;52.328;13.070;2022-08-19T04:05:24;19.20;99.90
12815;DHT22;6472;52.328;13.070;2022-08-19T04:07:56;19.20;99.90
12815;DHT22;6472;52.328;13.070;2022-08-19T04:10:26;19.20;99.90
12815;DHT22;6472;52.328;13.070;2022-08-19T04:12:54;19.20;99.90
12815;DHT22;6472;52.328;13.070;2022-08-19T04:15:22;19.20;99.90
12815;DHT22;6472;52.328;13.070;2022-08-19T04:17:50;19.20;99.90
12815;DHT22;6472;52.328;13.070;2022-08-19T04:20:18;19.30;99.90
12815;DHT22;6472;52.328;13.070;2022-08-19T04:22:46;19.30;99.90
12815;DHT22;6472;52.328;13.070;2022-08-19T04:25:16;19.30;99.90
12815;DHT22;6472;52.328;13.070;2022-08-19T04:27:44;19.30;99.90
12815;DHT22;6472;52.328;13.070;2022-08-19T04:30:13;19.30;99.90
12815;DHT22;6472;52.328;13.070;2022-08-19T04:32:42;19.40;99.90
12815;DHT22;6472;52.328;13.070;2022-08-19T04:35:11;19.30;99.90
12815;DHT22;6472;52.328;13.070;2022-08-19T04:37:45;19.40;99.90
12815;DHT22;6472;52.328;13.070;2022-08-19T04:40:13;19.40;99.90
12815;DHT22;6472;52.328;13.070;2022-08-19T04:42:59;19.40;99.90
12815;DHT22;6472;52.328;13.070;2022-08-19T04:45:27;19.50;99.90
12815;DHT22;6472;52.328;13.070;2022-08-19T04:48:05;19.50;99.90
12815;DHT22;6472;52.328;13.070;2022-08-19T04:50:54;19.50;99.90
12815;DHT22;6472;52.328;13.070;2022-08-19T04:53:25;19.50;99.90
12815;DHT22;6472;52.328;13.070;2022-08-19T04:56:05;19.60;99.90
12815;DHT22;6472;52.328;13.070;2022-08-19T04:58:36;19.60;99.90
12815;DHT22;6472;52.328;13.070;2022-08-19T05:01:05;19.70;99.90
12815;DHT22;6472;52.328;13.070;2022-08-19T05:03:33;19.80;99.90
12815;DHT22;6472;52.328;13.070;2022-08-19T05:06:05;19.80;99.90
12815;DHT22;6472;52.328;13.070;2022-08-19T05:08:35;19.90;99.90
12815;DHT22;6472;52.328;13.070;2022-08-19T05:11:08;20.00;99.90
12815;DHT22;6472;52.328;13.070;2022-08-19T05:13:41;20.10;99.90
12815;DHT22;6472;52.328;13.070;2022-08-19T05:16:11;20.10;99.90
12815;DHT22;6472;52.328;13.070;2022-08-19T05:18:40;20.10;99.90
12815;DHT22;6472;52.328;13.070;2022-08-19T05:21:26;20.10;99.90
12815;DHT22;6472;52.328;13.070;2022-08-19T05:24:12;20.10;99.90
12815;DHT22;6472;52.328;13.070;2022-08-19T05:26:44;20.10;99.90
12815;DHT22;6472;52.328;13.070;2022-08-19T05:29:18;20.10;99.90
12815;DHT22;6472;52.328;13.070;2022-08-19T05:31:49;20.20;99.90
12815;DHT22;6472;52.328;13.070;2022-08-19T05:34:18;20.20;99.90
12815;DHT22;6472;52.328;13.070;2022-08-19T05:36:48;20.20;99.90
12815;DHT22;6472;52.328;13.070;2022-08-19T05:39:19;20.30;99.90
12815;DHT22;6472;52.328;13.070;2022-08-19T05:41:49;20.30;99.90
12815;DHT22;6472;52.328;13.070;2022-08-19T05:44:20;20.40;99.90
12815;DHT22;6472;52.328;13.070;2022-08-19T05:46:49;20.40;99.90
12815;DHT22;6472;52.328;13.070;2022-08-19T05:49:21;20.50;99.90
12815;DHT22;6472;52.328;13.070;2022-08-19T05:51:49;20.50;99.90
12815;DHT22;6472;52.328;13.070;2022-08-19T05:54:18;20.50;99.90
12815;DHT22;6472;52.328;13.070;2022-08-19T05:56:47;20.60;99.90
12815;DHT22;6472;52.328;13.070;2022-08-19T05:59:16;20.60;99.90
12815;DHT22;6472;52.328;13.070;2022-08-19T06:01:47;20.60;99.90
12815;DHT22;6472;52.328;13.070;2022-08-19T06:04:18;20.70;99.90
12815;DHT22;6472;52.328;13.070;2022-08-19T06:06:50;20.80;99.90
12815;DHT22;6472;52.328;13.070;2022-08-19T06:09:21;20.90;99.90
12815;DHT22;6472;52.328;13.070;2022-08-19T06:11:50;21.00;99.90
12815;DHT22;6472;52.328;13.070;2022-08-19T06:14:23;21.10;99.90
12815;DHT22;6472;52.328;13.070;2022-08-19T06:16:56;21.10;99.90
12815;DHT22;6472;52.328;13.070;2022-08-19T06:19:35;21.20;99.90
12815;DHT22;6472;52.328;13.070;2022-08-19T06:22:07;21.20;99.90
12815;DHT22;6472;52.328;13.070;2022-08-19T06:24:38;21.20;99.90
12815;DHT22;6472;52.328;13.070;2022-08-19T06:27:06;21.30;99.90
12815;DHT22;6472;52.328;13.070;2022-08-19T06:29:35;21.30;99.90
12815;DHT22;6472;52.328;13.070;2022-08-19T06:32:05;21.30;99.90
12815;DHT22;6472;52.328;13.070;2022-08-19T06:34:34;21.20;99.90
12815;DHT22;6472;52.328;13.070;2022-08-19T06:37:03;21.30;99.90
12815;DHT22;6472;52.328;13.070;2022-08-19T06:39:34;21.40;99.90
12815;DHT22;6472;52.328;13.070;2022-08-19T06:42:05;21.50;99.90
12815;DHT22;6472;52.328;13.070;2022-08-19T06:44:38;21.50;99.90
12815;DHT22;6472;52.328;13.070;2022-08-19T06:47:13;21.50;99.90
12815;DHT22;6472;52.328;13.070;2022-08-19T06:49:52;21.70;99.90
12815;DHT22;6472;52.328;13.070;2022-08-19T06:52:27;21.80;99.90
12815;DHT22;6472;52.328;13.070;2022-08-19T06:54:55;21.90;99.90
12815;DHT22;6472;52.328;13.070;2022-08-19T06:57:26;22.10;99.90
12815;DHT22;6472;52.328;13.070;2022-08-19T06:59:59;22.30;99.90
12815;DHT22;6472;52.328;13.070;2022-08-19T07:02:29;22.20;99.90
12815;DHT22;6472;52.328;13.070;2022-08-19T07:04:57;22.50;99.90
12815;DHT22;6472;52.328;13.070;2022-08-19T07:07:28;22.70;99.90
12815;DHT22;6472;52.328;13.070;2022-08-19T07:09:59;22.50;99.90
12815;DHT22;6472;52.328;13.070;2022-08-19T07:12:32;22.40;99.90
12815;DHT22;6472;52.328;13.070;2022-08-19T07:15:04;22.40;99.90
12815;DHT22;6472;52.328;13.070;2022-08-19T07:17:34;22.50;99.90
12815;DHT22;6472;52.328;13.070;2022-08-19T07:20:06;22.60;99.90
12815;DHT22;6472;52.328;13.070;2022-08-19T07:22:35;22.60;99.90
12815;DHT22;6472;52.328;13.070;2022-08-19T07:25:06;22.60;99.90
12815;DHT22;6472;52.328;13.070;2022-08-19T07:27:34;22.50;99.90
12815;DHT22;6472;52.328;13.070;2022-08-19T07:30:06;22.40;99.90
12815;DHT22;6472;52.328;13.070;2022-08-19T07:32:39;22.30;99.90
12815;DHT22;6472;52.328;13.070;2022-08-19T07:35:09;22.30;99.90
12815;DHT22;6472;52.328;13.070;2022-08-19T07:37:37;22.30;99.90
12815;DHT22;6472;52.328;13.070;2022-08-19T07:40:11;22.40;99.90
12815;DHT22;6472;52.328;13.070;2022-08-19T07:42:40;22.40;99.90
12815;DHT22;6472;52.328;13.070;2022-08-19T07:45:09;22.30;99.90
12815;DHT22;6472;52.328;13.070;2022-08-19T07:47:39;22.30;99.90
12815;DHT22;6472;52.328;13.070;2022-08-19T07:50:24;22.30;99.90
12815;DHT22;6472;52.328;13.070;2022-08-19T07:52:52;22.30;99.90
12815;DHT22;6472;52.328;13.070;2022-08-19T07:55:23;22.40;99.90
12815;DHT22;6472;52.328;13.070;2022-08-19T07:58:09;22.40;99.90
12815;DHT22;6472;52.328;13.070;2022-08-19T08:00:38;22.40;99.90
12815;DHT22;6472;52.328;13.070;2022-08-19T08:03:07;22.50;99.90
12815;DHT22;6472;52.328;13.070;2022-08-19T08:05:36;22.70;99.90
12815;DHT22;6472;52.328;13.070;2022-08-19T08:08:22;22.70;99.90
12815;DHT22;6472;52.328;13.070;2022-08-19T08:11:14;22.80;99.90
12815;DHT22;6472;52.328;13.070;2022-08-19T08:13:47;22.70;99.90
12815;DHT22;6472;52.328;13.070;2022-08-19T08:16:42;22.60;99.90
12815;DHT22;6472;52.328;13.070;2022-08-19T08:19:38;22.50;99.90
12815;DHT22;6472;52.328;13.070;2022-08-19T08:22:08;22.50;99.90
12815;DHT22;6472;52.328;13.070;2022-08-19T08:24:56;22.50;99.90
12815;DHT22;6472;52.328;13.070;2022-08-19T08:27:25;22.60;99.90
12815;DHT22;6472;52.328;13.070;2022-08-19T08:29:58;22.80;99.90
12815;DHT22;6472;52.328;13.070;2022-08-19T08:32:28;22.80;99.90
12815;DHT22;6472;52.328;13.070;2022-08-19T08:34:58;22.90;99.90
12815;DHT22;6472;52.328;13.070;2022-08-19T08:37:26;22.90;99.90
12815;DHT22;6472;52.328;13.070;2022-08-19T08:39:54;23.00;99.90
12815;DHT22;6472;52.328;13.070;2022-08-19T08:42:27;23.10;99.90
12815;DHT22;6472;52.328;13.070;2022-08-19T08:45:00;23.10;99.90
12815;DHT22;6472;52.328;13.070;2022-08-19T08:47:32;23.20;99.90
12815;DHT22;6472;52.328;13.070;2022-08-19T08:50:16;23.20;99.90
12815;DHT22;6472;52.328;13.070;2022-08-19T08:52:48;23.10;99.90
12815;DHT22;6472;52.328;13.070;2022-08-19T08:55:20;23.00;99.90
12815;DHT22;6472;52.328;13.070;2022-08-19T08:57:53;23.00;99.90
12815;DHT22;6472;52.328;13.070;2022-08-19T09:00:24;22.90;99.90
12815;DHT22;6472;52.328;13.070;2022-08-19T09:02:53;22.80;99.90
12815;DHT22;6472;52.328;13.070;2022-08-19T09:05:35;22.70;99.90
12815;DHT22;6472;52.328;13.070;2022-08-19T09:08:17;22.60;99.90
12815;DHT22;6472;52.328;13.070;2022-08-19T09:10:53;22.50;99.90
12815;DHT22;6472;52.328;13.070;2022-08-19T09:13:28;22.40;99.90
12815;DHT22;6472;52.328;13.070;2022-08-19T09:16:06;22.40;99.90
12815;DHT22;6472;52.328;13.070;2022-08-19T09:18:41;22.40;99.90
12815;DHT22;6472;52.328;13.070;2022-08-19T09:21:11;22.40;99.90
12815;DHT22;6472;52.328;13.070;2022-08-19T09:23:40;22.50;99.90
12815;DHT22;6472;52.328;13.070;2022-08-19T09:26:12;22.40;99.90
12815;DHT22;6472;52.328;13.070;2022-08-19T09:28:43;22.30;99.90
12815;DHT22;6472;52.328;13.070;2022-08-19T09:31:17;22.30;99.90
12815;DHT22;6472;52.328;13.070;2022-08-19T09:33:46;22.30;99.90
12815;DHT22;6472;52.328;13.070;2022-08-19T09:36:21;22.20;99.90
12815;DHT22;6472;52.328;13.070;2022-08-19T09:39:00;22.10;99.90
12815;DHT22;6472;52.328;13.070;2022-08-19T09:41:28;21.90;99.90
12815;DHT22;6472;52.328;13.070;2022-08-19T09:43:58;21.80;99.90
12815;DHT22;6472;52.328;13.070;2022-08-19T09:46:28;21.80;99.90
12815;DHT22;6472;52.328;13.070;2022-08-19T09:48:59;21.80;99.90
12815;DHT22;6472;52.328;13.070;2022-08-19T09:51:34;21.80;99.90
12815;DHT22;6472;52.328;13.070;2022-08-19T09:54:03;21.80;99.90
12815;DHT22;6472;52.328;13.070;2022-08-19T09:56:32;21.70;99.90
12815;DHT22;6472;52.328;13.070;2022-08-19T09:59:02;21.70;99.90
12815;DHT22;6472;52.328;13.070;2022-08-19T10:01:32;21.70;99.90
12815;DHT22;6472;52.328;13.070;2022-08-19T10:04:00;21.70;99.90
12815;DHT22;6472;52.328;13.070;2022-08-19T10:06:41;21.60;99.90
12815;DHT22;6472;52.328;13.070;2022-08-19T10:09:14;21.70;99.90
12815;DHT22;6472;52.328;13.070;2022-08-19T10:11:52;21.70;99.90
12815;DHT22;6472;52.328;13.070;2022-08-19T10:14:21;21.70;99.90
12815;DHT22;6472;52.328;13.070;2022-08-19T10:16:50;21.60;99.90
12815;DHT22;6472;52.328;13.070;2022-08-19T10:19:18;21.60;99.90
12815;DHT22;6472;52.328;13.070;2022-08-19T10:21:55;21.70;99.90
12815;DHT22;6472;52.328;13.070;2022-08-19T10:24:33;21.80;99.90
12815;DHT22;6472;52.328;13.070;2022-08-19T10:27:04;21.80;99.90
12815;DHT22;6472;52.328;13.070;2022-08-19T10:29:34;21.80;99.90
12815;DHT22;6472;52.328;13.070;2022-08-19T10:32:12;21.80;99.90
12815;DHT22;6472;52.328;13.070;2022-08-19T10:34:40;21.70;99.90
12815;DHT22;6472;52.328;13.070;2022-08-19T10:37:19;21.60;99.90
12815;DHT22;6472;52.328;13.070;2022-08-19T10:39:57;21.60;99.90
12815;DHT22;6472;52.328;13.070;2022-08-19T10:42:25;21.50;99.90
12815;DHT22;6472;52.328;13.070;2022-08-19T10:44:55;21.50;99.90
12815;DHT22;6472;52.328;13.070;2022-08-19T10:47:24;21.50;99.90
12815;DHT22;6472;52.328;13.070;2022-08-19T10:49:57;21.40;99.90
12815;DHT22;6472;52.328;13.070;2022-08-19T10:52:46;21.40;99.90
12815;DHT22;6472;52.328;13.070;2022-08-19T10:55:16;21.30;99.90
12815;DHT22;6472;52.328;13.070;2022-08-19T10:58:02;21.30;99.90
12815;DHT22;6472;52.328;13.070;2022-08-19T11:00:30;21.30;99.90
12815;DHT22;6472;52.328;13.070;2022-08-19T11:02:59;21.40;99.90
12815;DHT22;6472;52.328;13.070;2022-08-19T11:05:27;21.40;99.90
12815;DHT22;6472;52.328;13.070;2022-08-19T11:08:07;21.40;99.90
12815;DHT22;6472;52.328;13.070;2022-08-19T11:10:50;21.30;99.90
12815;DHT22;6472;52.328;13.070;2022-08-19T11:13:20;21.30;99.90
12815;DHT22;6472;52.328;13.070;2022-08-19T11:15:56;21.30;99.90
12815;DHT22;6472;52.328;13.070;2022-08-19T11:18:31;21.30;99.90
12815;DHT22;6472;52.328;13.070;2022-08-19T11:21:06;21.40;99.90
12815;DHT22;6472;52.328;13.070;2022-08-19T11:23:36;21.30;99.90
12815;DHT22;6472;52.328;13.070;2022-08-19T11:26:04;21.30;99.90
12815;DHT22;6472;52.328;13.070;2022-08-19T11:28:33;21.30;99.90
12815;DHT22;6472;52.328;13.070;2022-08-19T11:31:01;21.30;99.90
12815;DHT22;6472;52.328;13.070;2022-08-19T11:33:30;21.30;99.90
12815;DHT22;6472;52.328;13.070;2022-08-19T11:35:59;21.40;99.90
12815;DHT22;6472;52.328;13.070;2022-08-19T11:38:29;21.30;99.90
12815;DHT22;6472;52.328;13.070;2022-08-19T11:41:02;21.30;99.90
12815;DHT22;6472;52.328;13.070;2022-08-19T11:43:32;21.30;99.90
12815;DHT22;6472;52.328;13.070;2022-08-19T11:46:04;21.30;99.90
12815;DHT22;6472;52.328;13.070;2022-08-19T11:48:35;21.30;99.90
12815;DHT22;6472;52.328;13.070;2022-08-19T11:51:05;21.30;99.90
12815;DHT22;6472;52.328;13.070;2022-08-19T11:53:34;21.30;99.90
12815;DHT22;6472;52.328;13.070;2022-08-19T11:56:05;21.40;99.90
12815;DHT22;6472;52.328;13.070;2022-08-19T11:58:34;21.50;99.90
12815;DHT22;6472;52.328;13.070;2022-08-19T12:01:05;21.30;99.90
12815;DHT22;6472;52.328;13.070;2022-08-19T12:03:33;21.40;99.90
12815;DHT22;6472;52.328;13.070;2022-08-19T12:06:04;21.40;99.90
12815;DHT22;6472;52.328;13.070;2022-08-19T12:08:33;21.40;99.90
12815;DHT22;6472;52.328;13.070;2022-08-19T12:11:01;21.30;99.90
12815;DHT22;6472;52.328;13.070;2022-08-19T12:13:31;21.30;99.90
12815;DHT22;6472;52.328;13.070;2022-08-19T12:15:59;21.30;99.90
12815;DHT22;6472;52.328;13.070;2022-08-19T12:18:28;21.20;99.90
12815;DHT22;6472;52.328;13.070;2022-08-19T12:20:56;21.20;99.90
12815;DHT22;6472;52.328;13.070;2022-08-19T12:23:24;21.30;99.90
12815;DHT22;6472;52.328;13.070;2022-08-19T12:25:53;21.30;99.90
12815;DHT22;6472;52.328;13.070;2022-08-19T12:28:24;21.30;99.90
12815;DHT22;6472;52.328;13.070;2022-08-19T12:30:56;21.30;99.90
12815;DHT22;6472;52.328;13.070;2022-08-19T12:33:24;21.30;99.90
12815;DHT22;6472;52.328;13.070;2022-08-19T12:35:55;21.30;99.90
12815;DHT22;6472;52.328;13.070;2022-08-19T12:38:27;21.40;99.90
12815;DHT22;6472;52.328;13.070;2022-08-19T12:40:55;21.50;99.90
12815;DHT22;6472;52.328;13.070;2022-08-19T12:43:26;21.50;99.90
12815;DHT22;6472;52.328;13.070;2022-08-19T12:45:58;21.50;99.90
12815;DHT22;6472;52.328;13.070;2022-08-19T12:48:26;21.60;99.90
12815;DHT22;6472;52.328;13.070;2022-08-19T12:51:05;21.60;99.90
12815;DHT22;6472;52.328;13.070;2022-08-19T12:53:33;21.60;99.90
12815;DHT22;6472;52.328;13.070;2022-08-19T12:56:05;21.50;99.90
12815;DHT22;6472;52.328;13.070;2022-08-19T12:58:38;21.60;99.90
12815;DHT22;6472;52.328;13.070;2022-08-19T13:01:18;21.70;99.90
12815;DHT22;6472;52.328;13.070;2022-08-19T13:03:49;21.70;99.90
12815;DHT22;6472;52.328;13.070;2022-08-19T13:06:18;21.70;99.90
12815;DHT22;6472;52.328;13.070;2022-08-19T13:08:47;21.70;99.90
12815;DHT22;6472;52.328;13.070;2022-08-19T13:11:18;21.50;99.90
12815;DHT22;6472;52.328;13.070;2022-08-19T13:13:48;21.50;99.90
12815;DHT22;6472;52.328;13.070;2022-08-19T13:16:19;21.50;99.90
12815;DHT22;6472;52.328;13.070;2022-08-19T13:18:50;21.40;99.90
12815;DHT22;6472;52.328;13.070;2022-08-19T13:21:19;21.30;99.90
12815;DHT22;6472;52.328;13.070;2022-08-19T13:23:50;21.30;99.90
12815;DHT22;6472;52.328;13.070;2022-08-19T13:26:19;21.40;99.90
12815;DHT22;6472;52.328;13.070;2022-08-19T13:28:47;21.30;99.90
12815;DHT22;6472;52.328;13.070;2022-08-19T13:31:36;21.40;99.90
12815;DHT22;6472;52.328;13.070;2022-08-19T13:34:28;21.40;99.90
12815;DHT22;6472;52.328;13.070;2022-08-19T13:36:58;21.40;99.90
12815;DHT22;6472;52.328;13.070;2022-08-19T13:39:26;21.50;99.90
12815;DHT22;6472;52.328;13.070;2022-08-19T13:41:54;21.60;99.90
12815;DHT22;6472;52.328;13.070;2022-08-19T13:44:22;21.60;99.90
12815;DHT22;6472;52.328;13.070;2022-08-19T13:46:52;21.70;99.90
12815;DHT22;6472;52.328;13.070;2022-08-19T13:49:20;21.70;99.90
12815;DHT22;6472;52.328;13.070;2022-08-19T13:51:49;21.70;99.90
12815;DHT22;6472;52.328;13.070;2022-08-19T13:54:17;21.70;99.90
12815;DHT22;6472;52.328;13.070;2022-08-19T13:56:46;21.60;99.90
12815;DHT22;6472;52.328;13.070;2022-08-19T13:59:15;21.50;99.90
12815;DHT22;6472;52.328;13.070;2022-08-19T14:01:43;21.50;99.90
12815;DHT22;6472;52.328;13.070;2022-08-19T14:04:13;21.50;99.90
12815;DHT22;6472;52.328;13.070;2022-08-19T14:06:41;21.50;99.90
12815;DHT22;6472;52.328;13.070;2022-08-19T14:09:09;21.40;99.90
12815;DHT22;6472;52.328;13.070;2022-08-19T14:11:37;21.50;99.90
12815;DHT22;6472;52.328;13.070;2022-08-19T14:14:05;21.50;99.90
12815;DHT22;6472;52.328;13.070;2022-08-19T14:16:33;21.50;99.90
12815;DHT22;6472;52.328;13.070;2022-08-19T14:19:01;21.50;99.90
12815;DHT22;6472;52.328;13.070;2022-08-19T14:21:30;21.50;99.90
12815;DHT22;6472;52.328;13.070;2022-08-19T14:23:59;21.50;99.90
12815;DHT22;6472;52.328;13.070;2022-08-19T14:26:27;21.50;99.90
12815;DHT22;6472;52.328;13.070;2022-08-19T14:28:59;21.50;99.90
12815;DHT22;6472;52.328;13.070;2022-08-19T14:31:27;21.60;99.90
12815;DHT22;6472;52.328;13.070;2022-08-19T14:33:56;21.60;99.90
12815;DHT22;6472;52.328;13.070;2022-08-19T14:36:24;21.60;99.90
12815;DHT22;6472;52.328;13.070;2022-08-19T14:38:54;21.70;99.90
12815;DHT22;6472;52.328;13.070;2022-08-19T14:41:24;21.70;99.90
12815;DHT22;6472;52.328;13.070;2022-08-19T14:43:54;21.70;99.90
12815;DHT22;6472;52.328;13.070;2022-08-19T14:46:23;21.80;99.90
12815;DHT22;6472;52.328;13.070;2022-08-19T14:48:55;21.80;99.90
12815;DHT22;6472;52.328;13.070;2022-08-19T14:51:26;21.70;99.90
12815;DHT22;6472;52.328;13.070;2022-08-19T14:53:56;21.60;99.90
12815;DHT22;6472;52.328;13.070;2022-08-19T14:56:26;21.50;99.90
12815;DHT22;6472;52.328;13.070;2022-08-19T14:58:55;21.40;99.90
12815;DHT22;6472;52.328;13.070;2022-08-19T15:01:26;21.40;99.90
12815;DHT22;6472;52.328;13.070;2022-08-19T15:03:54;21.50;99.90
12815;DHT22;6472;52.328;13.070;2022-08-19T15:06:23;21.40;99.90
12815;DHT22;6472;52.328;13.070;2022-08-19T15:08:52;21.40;99.90
12815;DHT22;6472;52.328;13.070;2022-08-19T15:11:24;21.40;99.90
12815;DHT22;6472;52.328;13.070;2022-08-19T15:13:55;21.30;99.90
12815;DHT22;6472;52.328;13.070;2022-08-19T15:16:24;21.30;99.90
12815;DHT22;6472;52.328;13.070;2022-08-19T15:18:54;21.30;99.90
12815;DHT22;6472;52.328;13.070;2022-08-19T15:21:24;21.30;99.90
12815;DHT22;6472;52.328;13.070;2022-08-19T15:23:53;21.20;99.90
12815;DHT22;6472;52.328;13.070;2022-08-19T15:26:24;21.30;99.90
12815;DHT22;6472;52.328;13.070;2022-08-19T15:28:53;21.20;99.90
12815;DHT22;6472;52.328;13.070;2022-08-19T15:31:21;21.20;99.90
12815;DHT22;6472;52.328;13.070;2022-08-19T15:33:55;21.30;99.90
12815;DHT22;6472;52.328;13.070;2022-08-19T15:36:25;21.30;99.90
12815;DHT22;6472;52.328;13.070;2022-08-19T15:38:53;21.20;99.90
12815;DHT22;6472;52.328;13.070;2022-08-19T15:41:25;21.10;99.90
12815;DHT22;6472;52.328;13.070;2022-08-19T15:43:55;21.10;99.90
12815;DHT22;6472;52.328;13.070;2022-08-19T15:46:26;21.10;99.90
12815;DHT22;6472;52.328;13.070;2022-08-19T15:48:55;21.00;99.90
12815;DHT22;6472;52.328;13.070;2022-08-19T15:51:27;21.00;99.90
12815;DHT22;6472;52.328;13.070;2022-08-19T15:53:56;21.00;99.90
12815;DHT22;6472;52.328;13.070;2022-08-19T15:56:26;20.90;99.90